sensor_id;sensor_type;location;lat;lon;timestamp;P1;durP1;ratioP1;P2;durP2;ratioP2
68989;SDS011;56046;47.270;11.368;2023-02-08T00:01:09;15.40;;;6.05;;
68989;SDS011;56046;47.270;11.368;2023-02-08T00:03:35;16.42;;;6.65;;
68989;SDS011;56046;47.270;11.368;2023-02-08T00:06:00;14.23;;;5.77;;
68989;SDS011;56046;47.270;11.368;2023-02-08T00:08:25;14.57;;;5.10;;
68989;SDS011;56046;47.270;11.368;2023-02-08T00:10:51;17.33;;;6.30;;
68989;SDS011;56046;47.270;11.368;2023-02-08T00:13:16;15.47;;;6.23;;
68989;SDS011;56046;47.270;11.368;2023-02-08T00:15:42;14.87;;;5.67;;
68989;SDS011;56046;47.270;11.368;2023-02-08T00:18:07;13.65;;;5.82;;
68989;SDS011;56046;47.270;11.368;2023-02-08T00:20:33;15.10;;;6.23;;
68989;SDS011;56046;47.270;11.368;2023-02-08T00:22:58;15.43;;;5.70;;
68989;SDS011;56046;47.270;11.368;2023-02-08T00:25:23;18.57;;;7.40;;
68989;SDS011;56046;47.270;11.368;2023-02-08T00:27:49;13.77;;;6.00;;
68989;SDS011;56046;47.270;11.368;2023-02-08T00:30:14;14.87;;;6.03;;
68989;SDS011;56046;47.270;11.368;2023-02-08T00:32:39;16.83;;;5.83;;
68989;SDS011;56046;47.270;11.368;2023-02-08T00:35:05;17.53;;;6.57;;
68989;SDS011;56046;47.270;11.368;2023-02-08T00:37:30;16.77;;;5.97;;
68989;SDS011;56046;47.270;11.368;2023-02-08T00:39:55;16.77;;;6.33;;
68989;SDS011;56046;47.270;11.368;2023-02-08T00:42:22;14.90;;;6.03;;
68989;SDS011;56046;47.270;11.368;2023-02-08T00:44:48;17.30;;;5.82;;
68989;SDS011;56046;47.270;11.368;2023-02-08T00:47:13;17.80;;;6.20;;
68989;SDS011;56046;47.270;11.368;2023-02-08T00:49:38;15.33;;;6.63;;
68989;SDS011;56046;47.270;11.368;2023-02-08T00:52:04;14.17;;;5.90;;
68989;SDS011;56046;47.270;11.368;2023-02-08T00:54:29;16.17;;;6.20;;
68989;SDS011;56046;47.270;11.368;2023-02-08T00:56:54;17.43;;;6.50;;
68989;SDS011;56046;47.270;11.368;2023-02-08T00:59:20;11.63;;;5.30;;
68989;SDS011;56046;47.270;11.368;2023-02-08T01:01:45;14.37;;;5.17;;
68989;SDS011;56046;47.270;11.368;2023-02-08T01:04:10;13.73;;;5.47;;
68989;SDS011;56046;47.270;11.368;2023-02-08T01:06:35;13.30;;;5.73;;
68989;SDS011;56046;47.270;11.368;2023-02-08T01:09:01;11.10;;;4.50;;
68989;SDS011;56046;47.270;11.368;2023-02-08T01:11:26;13.93;;;5.30;;
68989;SDS011;56046;47.270;11.368;2023-02-08T01:13:52;9.10;;;3.73;;
68989;SDS011;56046;47.270;11.368;2023-02-08T01:16:21;15.23;;;5.37;;
68989;SDS011;56046;47.270;11.368;2023-02-08T01:18:48;11.90;;;4.63;;
68989;SDS011;56046;47.270;11.368;2023-02-08T01:21:15;12.20;;;4.57;;
68989;SDS011;56046;47.270;11.368;2023-02-08T01:23:41;11.68;;;4.72;;
68989;SDS011;56046;47.270;11.368;2023-02-08T01:26:07;13.55;;;5.15;;
68989;SDS011;56046;47.270;11.368;2023-02-08T01:28:33;11.03;;;4.17;;
68989;SDS011;56046;47.270;11.368;2023-02-08T01:30:58;17.08;;;5.53;;
68989;SDS011;56046;47.270;11.368;2023-02-08T01:33:24;15.10;;;5.13;;
68989;SDS011;56046;47.270;11.368;2023-02-08T01:35:50;15.33;;;5.23;;
68989;SDS011;56046;47.270;11.368;2023-02-08T01:38:16;17.58;;;5.70;;
68989;SDS011;56046;47.270;11.368;2023-02-08T01:40:44;15.55;;;4.93;;
68989;SDS011;56046;47.270;11.368;2023-02-08T01:43:29;13.37;;;4.90;;
68989;SDS011;56046;47.270;11.368;2023-02-08T01:45:55;13.00;;;4.88;;
68989;SDS011;56046;47.270;11.368;2023-02-08T01:48:25;16.73;;;6.13;;
68989;SDS011;56046;47.270;11.368;2023-02-08T01:50:53;16.35;;;6.78;;
68989;SDS011;56046;47.270;11.368;2023-02-08T01:53:19;12.82;;;5.32;;
68989;SDS011;56046;47.270;11.368;2023-02-08T01:55:46;16.70;;;5.80;;
68989;SDS011;56046;47.270;11.368;2023-02-08T01:58:13;15.02;;;5.70;;
68989;SDS011;56046;47.270;11.368;2023-02-08T02:00:38;13.10;;;5.43;;
68989;SDS011;56046;47.270;11.368;2023-02-08T02:03:03;14.80;;;4.77;;
68989;SDS011;56046;47.270;11.368;2023-02-08T02:05:33;14.05;;;5.15;;
68989;SDS011;56046;47.270;11.368;2023-02-08T02:07:59;13.27;;;5.30;;
68989;SDS011;56046;47.270;11.368;2023-02-08T02:10:29;15.25;;;6.40;;
68989;SDS011;56046;47.270;11.368;2023-02-08T02:12:57;13.13;;;5.20;;
68989;SDS011;56046;47.270;11.368;2023-02-08T02:15:24;12.63;;;4.83;;
68989;SDS011;56046;47.270;11.368;2023-02-08T02:17:49;11.13;;;4.83;;
68989;SDS011;56046;47.270;11.368;2023-02-08T02:33:11;12.80;;;5.20;;
68989;SDS011;56046;47.270;11.368;2023-02-08T02:35:43;16.17;;;5.25;;
68989;SDS011;56046;47.270;11.368;2023-02-08T02:40:39;10.80;;;4.50;;
68989;SDS011;56046;47.270;11.368;2023-02-08T02:46:09;13.48;;;4.95;;
68989;SDS011;56046;47.270;11.368;2023-02-08T02:51:13;12.48;;;3.90;;
68989;SDS011;56046;47.270;11.368;2023-02-08T02:56:23;11.57;;;3.58;;
68989;SDS011;56046;47.270;11.368;2023-02-08T02:58:49;13.05;;;4.32;;
68989;SDS011;56046;47.270;11.368;2023-02-08T03:01:20;12.00;;;4.63;;
68989;SDS011;56046;47.270;11.368;2023-02-08T03:03:45;9.85;;;3.85;;
68989;SDS011;56046;47.270;11.368;2023-02-08T03:06:13;11.30;;;3.70;;
68989;SDS011;56046;47.270;11.368;2023-02-08T03:16:30;9.37;;;3.63;;
68989;SDS011;56046;47.270;11.368;2023-02-08T03:21:37;13.18;;;3.75;;
68989;SDS011;56046;47.270;11.368;2023-02-08T03:24:18;9.70;;;3.55;;
68989;SDS011;56046;47.270;11.368;2023-02-08T03:26:57;12.50;;;3.83;;
68989;SDS011;56046;47.270;11.368;2023-02-08T03:32:01;10.03;;;3.80;;
68989;SDS011;56046;47.270;11.368;2023-02-08T03:37:09;10.43;;;3.92;;
68989;SDS011;56046;47.270;11.368;2023-02-08T03:39:38;9.75;;;3.72;;
68989;SDS011;56046;47.270;11.368;2023-02-08T03:42:05;9.52;;;3.05;;
68989;SDS011;56046;47.270;11.368;2023-02-08T03:44:37;7.83;;;2.93;;
68989;SDS011;56046;47.270;11.368;2023-02-08T03:47:05;7.28;;;2.45;;
68989;SDS011;56046;47.270;11.368;2023-02-08T03:49:32;7.03;;;2.83;;
68989;SDS011;56046;47.270;11.368;2023-02-08T03:51:59;10.07;;;3.78;;
68989;SDS011;56046;47.270;11.368;2023-02-08T03:54:26;10.05;;;3.15;;
68989;SDS011;56046;47.270;11.368;2023-02-08T03:56:56;8.73;;;3.10;;
68989;SDS011;56046;47.270;11.368;2023-02-08T03:59:26;11.02;;;3.28;;
68989;SDS011;56046;47.270;11.368;2023-02-08T04:01:58;6.65;;;2.47;;
68989;SDS011;56046;47.270;11.368;2023-02-08T04:04:25;9.88;;;2.55;;
68989;SDS011;56046;47.270;11.368;2023-02-08T04:06:50;9.93;;;3.33;;
68989;SDS011;56046;47.270;11.368;2023-02-08T04:09:19;8.97;;;3.03;;
68989;SDS011;56046;47.270;11.368;2023-02-08T04:11:44;8.27;;;2.85;;
68989;SDS011;56046;47.270;11.368;2023-02-08T04:14:09;5.17;;;2.40;;
68989;SDS011;56046;47.270;11.368;2023-02-08T04:16:34;9.80;;;3.40;;
68989;SDS011;56046;47.270;11.368;2023-02-08T04:19:00;7.17;;;2.80;;
68989;SDS011;56046;47.270;11.368;2023-02-08T04:21:25;8.93;;;2.77;;
68989;SDS011;56046;47.270;11.368;2023-02-08T04:23:51;9.05;;;2.88;;
68989;SDS011;56046;47.270;11.368;2023-02-08T04:26:16;8.33;;;2.60;;
68989;SDS011;56046;47.270;11.368;2023-02-08T04:28:41;6.77;;;2.50;;
68989;SDS011;56046;47.270;11.368;2023-02-08T04:31:07;9.77;;;3.10;;
68989;SDS011;56046;47.270;11.368;2023-02-08T04:33:32;8.13;;;3.13;;
68989;SDS011;56046;47.270;11.368;2023-02-08T04:35:57;10.03;;;3.23;;
68989;SDS011;56046;47.270;11.368;2023-02-08T04:38:22;6.33;;;2.60;;
68989;SDS011;56046;47.270;11.368;2023-02-08T04:40:48;6.13;;;2.43;;
68989;SDS011;56046;47.270;11.368;2023-02-08T04:43:13;6.33;;;2.63;;
68989;SDS011;56046;47.270;11.368;2023-02-08T04:45:38;11.33;;;3.40;;
68989;SDS011;56046;47.270;11.368;2023-02-08T04:48:03;8.27;;;2.50;;
68989;SDS011;56046;47.270;11.368;2023-02-08T04:50:31;7.63;;;2.83;;
68989;SDS011;56046;47.270;11.368;2023-02-08T04:52:56;10.25;;;3.25;;
68989;SDS011;56046;47.270;11.368;2023-02-08T04:55:21;6.70;;;2.50;;
68989;SDS011;56046;47.270;11.368;2023-02-08T04:57:47;7.50;;;2.53;;
68989;SDS011;56046;47.270;11.368;2023-02-08T05:00:12;7.87;;;3.03;;
68989;SDS011;56046;47.270;11.368;2023-02-08T05:02:37;6.87;;;2.90;;
68989;SDS011;56046;47.270;11.368;2023-02-08T05:05:03;8.53;;;2.73;;
68989;SDS011;56046;47.270;11.368;2023-02-08T05:07:28;9.63;;;3.20;;
68989;SDS011;56046;47.270;11.368;2023-02-08T05:09:53;6.40;;;2.37;;
68989;SDS011;56046;47.270;11.368;2023-02-08T05:12:19;6.83;;;2.13;;
68989;SDS011;56046;47.270;11.368;2023-02-08T05:14:44;8.03;;;2.70;;
68989;SDS011;56046;47.270;11.368;2023-02-08T05:17:09;7.00;;;2.77;;
68989;SDS011;56046;47.270;11.368;2023-02-08T05:19:34;6.53;;;2.00;;
68989;SDS011;56046;47.270;11.368;2023-02-08T05:22:00;5.53;;;1.90;;
68989;SDS011;56046;47.270;11.368;2023-02-08T05:24:25;7.40;;;2.70;;
68989;SDS011;56046;47.270;11.368;2023-02-08T05:26:50;8.40;;;2.23;;
68989;SDS011;56046;47.270;11.368;2023-02-08T05:29:16;8.73;;;2.50;;
68989;SDS011;56046;47.270;11.368;2023-02-08T05:31:41;6.85;;;2.33;;
68989;SDS011;56046;47.270;11.368;2023-02-08T05:34:06;7.85;;;2.63;;
68989;SDS011;56046;47.270;11.368;2023-02-08T05:36:32;8.60;;;2.33;;
68989;SDS011;56046;47.270;11.368;2023-02-08T05:38:57;6.90;;;2.23;;
68989;SDS011;56046;47.270;11.368;2023-02-08T05:41:22;6.53;;;2.23;;
68989;SDS011;56046;47.270;11.368;2023-02-08T05:43:47;6.87;;;2.47;;
68989;SDS011;56046;47.270;11.368;2023-02-08T05:46:13;4.83;;;1.93;;
68989;SDS011;56046;47.270;11.368;2023-02-08T05:48:38;5.23;;;1.90;;
68989;SDS011;56046;47.270;11.368;2023-02-08T05:51:03;6.13;;;1.90;;
68989;SDS011;56046;47.270;11.368;2023-02-08T05:53:29;6.73;;;1.87;;
68989;SDS011;56046;47.270;11.368;2023-02-08T05:55:55;5.87;;;2.17;;
68989;SDS011;56046;47.270;11.368;2023-02-08T05:58:21;4.30;;;1.67;;
68989;SDS011;56046;47.270;11.368;2023-02-08T06:00:46;5.20;;;1.90;;
68989;SDS011;56046;47.270;11.368;2023-02-08T06:03:12;8.23;;;2.40;;
68989;SDS011;56046;47.270;11.368;2023-02-08T06:05:37;6.70;;;2.00;;
68989;SDS011;56046;47.270;11.368;2023-02-08T06:08:03;6.27;;;2.17;;
68989;SDS011;56046;47.270;11.368;2023-02-08T06:10:28;4.80;;;1.98;;
68989;SDS011;56046;47.270;11.368;2023-02-08T06:12:54;6.83;;;2.17;;
68989;SDS011;56046;47.270;11.368;2023-02-08T06:15:19;6.57;;;2.13;;
68989;SDS011;56046;47.270;11.368;2023-02-08T06:17:44;6.97;;;2.47;;
68989;SDS011;56046;47.270;11.368;2023-02-08T06:20:10;9.67;;;2.70;;
68989;SDS011;56046;47.270;11.368;2023-02-08T06:22:35;4.63;;;2.13;;
68989;SDS011;56046;47.270;11.368;2023-02-08T06:25:01;8.07;;;2.70;;
68989;SDS011;56046;47.270;11.368;2023-02-08T06:27:26;9.65;;;3.10;;
68989;SDS011;56046;47.270;11.368;2023-02-08T06:29:51;8.18;;;2.65;;
68989;SDS011;56046;47.270;11.368;2023-02-08T06:32:17;5.00;;;2.03;;
68989;SDS011;56046;47.270;11.368;2023-02-08T06:34:42;5.37;;;2.40;;
68989;SDS011;56046;47.270;11.368;2023-02-08T06:37:08;6.80;;;2.50;;
68989;SDS011;56046;47.270;11.368;2023-02-08T06:39:33;10.73;;;2.63;;
68989;SDS011;56046;47.270;11.368;2023-02-08T06:41:58;6.70;;;2.40;;
68989;SDS011;56046;47.270;11.368;2023-02-08T06:44:24;7.43;;;1.90;;
68989;SDS011;56046;47.270;11.368;2023-02-08T06:46:49;6.87;;;2.00;;
68989;SDS011;56046;47.270;11.368;2023-02-08T06:49:14;5.97;;;2.13;;
68989;SDS011;56046;47.270;11.368;2023-02-08T06:51:40;6.53;;;2.30;;
68989;SDS011;56046;47.270;11.368;2023-02-08T06:54:05;5.13;;;1.97;;
68989;SDS011;56046;47.270;11.368;2023-02-08T06:56:30;5.83;;;1.83;;
68989;SDS011;56046;47.270;11.368;2023-02-08T06:58:56;6.67;;;1.90;;
68989;SDS011;56046;47.270;11.368;2023-02-08T07:01:21;7.30;;;2.43;;
68989;SDS011;56046;47.270;11.368;2023-02-08T07:03:46;9.93;;;3.13;;
68989;SDS011;56046;47.270;11.368;2023-02-08T07:06:15;9.73;;;3.30;;
68989;SDS011;56046;47.270;11.368;2023-02-08T07:08:41;8.40;;;2.97;;
68989;SDS011;56046;47.270;11.368;2023-02-08T07:11:07;8.63;;;2.70;;
68989;SDS011;56046;47.270;11.368;2023-02-08T07:13:33;7.38;;;2.50;;
68989;SDS011;56046;47.270;11.368;2023-02-08T07:15:59;6.85;;;2.33;;
68989;SDS011;56046;47.270;11.368;2023-02-08T07:18:24;6.87;;;2.13;;
68989;SDS011;56046;47.270;11.368;2023-02-08T07:20:49;6.90;;;2.40;;
68989;SDS011;56046;47.270;11.368;2023-02-08T07:23:15;6.07;;;2.13;;
68989;SDS011;56046;47.270;11.368;2023-02-08T07:25:40;7.53;;;2.57;;
68989;SDS011;56046;47.270;11.368;2023-02-08T07:28:05;5.67;;;1.83;;
68989;SDS011;56046;47.270;11.368;2023-02-08T07:30:30;5.93;;;1.83;;
68989;SDS011;56046;47.270;11.368;2023-02-08T07:32:56;7.13;;;2.70;;
68989;SDS011;56046;47.270;11.368;2023-02-08T07:35:21;7.10;;;2.20;;
68989;SDS011;56046;47.270;11.368;2023-02-08T07:37:46;14.87;;;3.03;;
68989;SDS011;56046;47.270;11.368;2023-02-08T07:40:12;7.27;;;2.90;;
68989;SDS011;56046;47.270;11.368;2023-02-08T07:42:37;9.83;;;2.90;;
68989;SDS011;56046;47.270;11.368;2023-02-08T07:45:02;7.10;;;2.87;;
68989;SDS011;56046;47.270;11.368;2023-02-08T07:47:28;12.63;;;4.13;;
68989;SDS011;56046;47.270;11.368;2023-02-08T07:49:53;13.17;;;3.83;;
68989;SDS011;56046;47.270;11.368;2023-02-08T07:52:18;15.83;;;3.57;;
68989;SDS011;56046;47.270;11.368;2023-02-08T07:54:44;8.43;;;3.23;;
68989;SDS011;56046;47.270;11.368;2023-02-08T07:57:09;9.37;;;3.50;;
68989;SDS011;56046;47.270;11.368;2023-02-08T07:59:34;9.90;;;4.00;;
68989;SDS011;56046;47.270;11.368;2023-02-08T08:01:59;11.90;;;4.73;;
68989;SDS011;56046;47.270;11.368;2023-02-08T08:04:25;11.20;;;3.93;;
68989;SDS011;56046;47.270;11.368;2023-02-08T08:06:50;10.63;;;4.53;;
68989;SDS011;56046;47.270;11.368;2023-02-08T08:09:15;13.33;;;4.07;;
68989;SDS011;56046;47.270;11.368;2023-02-08T08:11:41;11.87;;;4.50;;
68989;SDS011;56046;47.270;11.368;2023-02-08T08:14:06;9.87;;;3.63;;
68989;SDS011;56046;47.270;11.368;2023-02-08T08:16:31;12.63;;;4.53;;
68989;SDS011;56046;47.270;11.368;2023-02-08T08:18:56;10.40;;;3.90;;
68989;SDS011;56046;47.270;11.368;2023-02-08T08:21:22;8.20;;;3.57;;
68989;SDS011;56046;47.270;11.368;2023-02-08T08:23:47;8.63;;;3.60;;
68989;SDS011;56046;47.270;11.368;2023-02-08T08:26:14;7.43;;;3.37;;
68989;SDS011;56046;47.270;11.368;2023-02-08T08:28:39;11.00;;;3.65;;
68989;SDS011;56046;47.270;11.368;2023-02-08T08:31:12;7.10;;;3.17;;
68989;SDS011;56046;47.270;11.368;2023-02-08T08:33:38;8.15;;;3.50;;
68989;SDS011;56046;47.270;11.368;2023-02-08T08:36:03;10.07;;;3.63;;
68989;SDS011;56046;47.270;11.368;2023-02-08T08:38:28;9.43;;;3.40;;
68989;SDS011;56046;47.270;11.368;2023-02-08T08:40:53;9.60;;;3.77;;
68989;SDS011;56046;47.270;11.368;2023-02-08T08:43:19;7.93;;;2.80;;
68989;SDS011;56046;47.270;11.368;2023-02-08T08:45:44;10.40;;;3.50;;
68989;SDS011;56046;47.270;11.368;2023-02-08T08:48:09;7.65;;;3.10;;
68989;SDS011;56046;47.270;11.368;2023-02-08T08:50:35;11.50;;;3.65;;
68989;SDS011;56046;47.270;11.368;2023-02-08T08:53:00;8.87;;;3.33;;
68989;SDS011;56046;47.270;11.368;2023-02-08T08:55:26;6.97;;;2.73;;
68989;SDS011;56046;47.270;11.368;2023-02-08T08:57:52;8.98;;;3.28;;
68989;SDS011;56046;47.270;11.368;2023-02-08T09:00:17;8.40;;;3.17;;
68989;SDS011;56046;47.270;11.368;2023-02-08T09:02:43;8.27;;;3.23;;
68989;SDS011;56046;47.270;11.368;2023-02-08T09:05:08;10.10;;;3.83;;
68989;SDS011;56046;47.270;11.368;2023-02-08T09:07:33;11.73;;;4.10;;
68989;SDS011;56046;47.270;11.368;2023-02-08T09:09:59;7.47;;;3.28;;
68989;SDS011;56046;47.270;11.368;2023-02-08T09:12:24;7.37;;;3.20;;
68989;SDS011;56046;47.270;11.368;2023-02-08T09:14:49;9.43;;;3.10;;
68989;SDS011;56046;47.270;11.368;2023-02-08T09:17:15;7.77;;;3.27;;
68989;SDS011;56046;47.270;11.368;2023-02-08T09:19:40;7.80;;;3.10;;
68989;SDS011;56046;47.270;11.368;2023-02-08T09:22:06;7.87;;;3.00;;
68989;SDS011;56046;47.270;11.368;2023-02-08T09:24:32;9.75;;;3.42;;
68989;SDS011;56046;47.270;11.368;2023-02-08T09:26:57;9.07;;;3.40;;
68989;SDS011;56046;47.270;11.368;2023-02-08T09:29:23;10.30;;;4.40;;
68989;SDS011;56046;47.270;11.368;2023-02-08T09:31:48;10.53;;;4.50;;
68989;SDS011;56046;47.270;11.368;2023-02-08T09:34:13;11.53;;;4.80;;
68989;SDS011;56046;47.270;11.368;2023-02-08T09:36:39;10.13;;;4.00;;
68989;SDS011;56046;47.270;11.368;2023-02-08T09:39:08;12.00;;;4.72;;
68989;SDS011;56046;47.270;11.368;2023-02-08T09:46:40;17.53;;;6.33;;
68989;SDS011;56046;47.270;11.368;2023-02-08T09:49:13;14.73;;;6.50;;
68989;SDS011;56046;47.270;11.368;2023-02-08T09:51:41;11.25;;;5.38;;
68989;SDS011;56046;47.270;11.368;2023-02-08T09:56:39;23.92;;;7.43;;
68989;SDS011;56046;47.270;11.368;2023-02-08T09:59:07;13.83;;;5.03;;
68989;SDS011;56046;47.270;11.368;2023-02-08T10:01:36;12.40;;;5.50;;
68989;SDS011;56046;47.270;11.368;2023-02-08T10:04:04;13.37;;;5.37;;
68989;SDS011;56046;47.270;11.368;2023-02-08T10:06:30;12.25;;;5.57;;
68989;SDS011;56046;47.270;11.368;2023-02-08T10:08:55;13.50;;;5.30;;
68989;SDS011;56046;47.270;11.368;2023-02-08T10:21:52;16.00;;;5.40;;
68989;SDS011;56046;47.270;11.368;2023-02-08T10:26:53;13.30;;;5.17;;
68989;SDS011;56046;47.270;11.368;2023-02-08T10:37:16;12.63;;;4.97;;
68989;SDS011;56046;47.270;11.368;2023-02-08T10:39:43;12.03;;;5.40;;
68989;SDS011;56046;47.270;11.368;2023-02-08T10:42:12;11.10;;;5.18;;
68989;SDS011;56046;47.270;11.368;2023-02-08T10:47:31;10.60;;;4.53;;
68989;SDS011;56046;47.270;11.368;2023-02-08T10:52:31;10.17;;;4.57;;
68989;SDS011;56046;47.270;11.368;2023-02-08T10:54:57;9.75;;;3.63;;
68989;SDS011;56046;47.270;11.368;2023-02-08T10:57:23;12.43;;;4.80;;
68989;SDS011;56046;47.270;11.368;2023-02-08T10:59:58;11.95;;;4.80;;
68989;SDS011;56046;47.270;11.368;2023-02-08T11:02:30;9.83;;;4.63;;
68989;SDS011;56046;47.270;11.368;2023-02-08T11:05:03;10.00;;;4.50;;
68989;SDS011;56046;47.270;11.368;2023-02-08T11:07:28;9.45;;;4.63;;
68989;SDS011;56046;47.270;11.368;2023-02-08T11:09:55;8.60;;;3.90;;
68989;SDS011;56046;47.270;11.368;2023-02-08T11:12:36;9.70;;;3.90;;
68989;SDS011;56046;47.270;11.368;2023-02-08T11:15:05;9.70;;;3.30;;
68989;SDS011;56046;47.270;11.368;2023-02-08T11:17:30;7.97;;;3.43;;
68989;SDS011;56046;47.270;11.368;2023-02-08T11:19:57;8.38;;;3.10;;
68989;SDS011;56046;47.270;11.368;2023-02-08T11:22:23;7.35;;;3.33;;
68989;SDS011;56046;47.270;11.368;2023-02-08T11:24:56;8.85;;;3.53;;
68989;SDS011;56046;47.270;11.368;2023-02-08T11:29:53;9.70;;;3.63;;
68989;SDS011;56046;47.270;11.368;2023-02-08T11:32:33;8.13;;;3.92;;
68989;SDS011;56046;47.270;11.368;2023-02-08T11:35:10;8.93;;;4.00;;
68989;SDS011;56046;47.270;11.368;2023-02-08T11:37:36;10.77;;;3.90;;
68989;SDS011;56046;47.270;11.368;2023-02-08T11:40:01;8.30;;;4.00;;
68989;SDS011;56046;47.270;11.368;2023-02-08T11:42:28;9.85;;;3.60;;
68989;SDS011;56046;47.270;11.368;2023-02-08T11:44:55;13.98;;;4.13;;
68989;SDS011;56046;47.270;11.368;2023-02-08T11:47:25;8.05;;;3.60;;
68989;SDS011;56046;47.270;11.368;2023-02-08T11:49:52;8.83;;;3.67;;
68989;SDS011;56046;47.270;11.368;2023-02-08T11:55:10;9.27;;;3.80;;
68989;SDS011;56046;47.270;11.368;2023-02-08T11:57:35;10.52;;;3.63;;
68989;SDS011;56046;47.270;11.368;2023-02-08T12:00:17;9.15;;;4.00;;
68989;SDS011;56046;47.270;11.368;2023-02-08T12:02:43;7.83;;;3.10;;
68989;SDS011;56046;47.270;11.368;2023-02-08T12:05:14;8.75;;;3.90;;
68989;SDS011;56046;47.270;11.368;2023-02-08T12:10:14;6.97;;;2.85;;
68989;SDS011;56046;47.270;11.368;2023-02-08T12:15:37;7.50;;;3.37;;
68989;SDS011;56046;47.270;11.368;2023-02-08T12:18:16;8.18;;;3.42;;
68989;SDS011;56046;47.270;11.368;2023-02-08T12:20:44;9.82;;;3.78;;
68989;SDS011;56046;47.270;11.368;2023-02-08T12:23:46;9.75;;;3.80;;
68989;SDS011;56046;47.270;11.368;2023-02-08T12:31:21;9.82;;;3.85;;
68989;SDS011;56046;47.270;11.368;2023-02-08T12:33:52;7.90;;;3.50;;
68989;SDS011;56046;47.270;11.368;2023-02-08T12:52:02;11.70;;;4.33;;
68989;SDS011;56046;47.270;11.368;2023-02-08T12:54:34;8.32;;;4.40;;
68989;SDS011;56046;47.270;11.368;2023-02-08T12:57:00;10.10;;;3.78;;
68989;SDS011;56046;47.270;11.368;2023-02-08T13:00:00;8.03;;;3.63;;
68989;SDS011;56046;47.270;11.368;2023-02-08T13:04:47;11.60;;;4.00;;
68989;SDS011;56046;47.270;11.368;2023-02-08T13:07:21;9.02;;;4.03;;
68989;SDS011;56046;47.270;11.368;2023-02-08T13:10:33;8.45;;;3.83;;
68989;SDS011;56046;47.270;11.368;2023-02-08T13:12:35;9.77;;;4.80;;
68989;SDS011;56046;47.270;11.368;2023-02-08T13:15:12;9.97;;;3.90;;
68989;SDS011;56046;47.270;11.368;2023-02-08T13:22:41;10.18;;;4.38;;
68989;SDS011;56046;47.270;11.368;2023-02-08T13:25:20;10.40;;;4.77;;
68989;SDS011;56046;47.270;11.368;2023-02-08T13:27:47;9.85;;;4.15;;
68989;SDS011;56046;47.270;11.368;2023-02-08T13:30:17;9.60;;;4.47;;
68989;SDS011;56046;47.270;11.368;2023-02-08T13:32:43;8.93;;;4.10;;
68989;SDS011;56046;47.270;11.368;2023-02-08T13:37:41;10.30;;;3.85;;
68989;SDS011;56046;47.270;11.368;2023-02-08T13:40:07;9.68;;;4.60;;
68989;SDS011;56046;47.270;11.368;2023-02-08T13:42:42;11.27;;;4.97;;
68989;SDS011;56046;47.270;11.368;2023-02-08T13:45:08;8.20;;;3.33;;
68989;SDS011;56046;47.270;11.368;2023-02-08T13:47:41;6.82;;;3.45;;
68989;SDS011;56046;47.270;11.368;2023-02-08T13:52:51;7.72;;;3.65;;
68989;SDS011;56046;47.270;11.368;2023-02-08T14:00:27;7.35;;;3.00;;
68989;SDS011;56046;47.270;11.368;2023-02-08T14:08:13;8.30;;;3.78;;
68989;SDS011;56046;47.270;11.368;2023-02-08T14:10:41;8.63;;;4.30;;
68989;SDS011;56046;47.270;11.368;2023-02-08T14:13:18;7.65;;;3.35;;
68989;SDS011;56046;47.270;11.368;2023-02-08T14:15:46;8.33;;;3.27;;
68989;SDS011;56046;47.270;11.368;2023-02-08T14:18:24;7.40;;;3.22;;
68989;SDS011;56046;47.270;11.368;2023-02-08T14:20:58;8.32;;;3.95;;
68989;SDS011;56046;47.270;11.368;2023-02-08T14:23:25;7.20;;;2.70;;
68989;SDS011;56046;47.270;11.368;2023-02-08T14:25:52;7.35;;;3.10;;
68989;SDS011;56046;47.270;11.368;2023-02-08T14:28:29;7.45;;;3.00;;
68989;SDS011;56046;47.270;11.368;2023-02-08T14:30:56;6.83;;;2.60;;
68989;SDS011;56046;47.270;11.368;2023-02-08T14:33:24;8.90;;;3.50;;
68989;SDS011;56046;47.270;11.368;2023-02-08T14:35:57;7.43;;;2.92;;
68989;SDS011;56046;47.270;11.368;2023-02-08T14:40:52;6.37;;;2.87;;
68989;SDS011;56046;47.270;11.368;2023-02-08T14:45:43;7.27;;;2.70;;
68989;SDS011;56046;47.270;11.368;2023-02-08T14:50:38;7.47;;;2.40;;
68989;SDS011;56046;47.270;11.368;2023-02-08T14:53:15;6.75;;;2.55;;
68989;SDS011;56046;47.270;11.368;2023-02-08T14:55:44;5.32;;;2.10;;
68989;SDS011;56046;47.270;11.368;2023-02-08T14:58:13;6.35;;;1.75;;
68989;SDS011;56046;47.270;11.368;2023-02-08T15:00:39;8.13;;;3.03;;
68989;SDS011;56046;47.270;11.368;2023-02-08T15:03:06;7.22;;;3.15;;
68989;SDS011;56046;47.270;11.368;2023-02-08T15:05:41;7.68;;;2.67;;
68989;SDS011;56046;47.270;11.368;2023-02-08T15:08:07;7.05;;;2.53;;
68989;SDS011;56046;47.270;11.368;2023-02-08T15:10:33;7.27;;;3.00;;
68989;SDS011;56046;47.270;11.368;2023-02-08T15:13:00;5.70;;;2.47;;
68989;SDS011;56046;47.270;11.368;2023-02-08T15:17:53;5.27;;;2.10;;
68989;SDS011;56046;47.270;11.368;2023-02-08T15:20:20;6.50;;;1.80;;
68989;SDS011;56046;47.270;11.368;2023-02-08T15:22:46;8.40;;;3.50;;
68989;SDS011;56046;47.270;11.368;2023-02-08T15:27:48;5.05;;;1.90;;
68989;SDS011;56046;47.270;11.368;2023-02-08T15:30:52;6.32;;;1.90;;
68989;SDS011;56046;47.270;11.368;2023-02-08T15:33:09;4.10;;;1.52;;
68989;SDS011;56046;47.270;11.368;2023-02-08T15:35:38;4.93;;;1.93;;
68989;SDS011;56046;47.270;11.368;2023-02-08T15:38:03;3.60;;;1.40;;
68989;SDS011;56046;47.270;11.368;2023-02-08T15:40:33;4.77;;;1.70;;
68989;SDS011;56046;47.270;11.368;2023-02-08T15:45:33;4.80;;;1.88;;
68989;SDS011;56046;47.270;11.368;2023-02-08T15:47:58;4.82;;;1.45;;
68989;SDS011;56046;47.270;11.368;2023-02-08T15:50:24;6.55;;;2.03;;
68989;SDS011;56046;47.270;11.368;2023-02-08T15:52:55;7.93;;;2.73;;
68989;SDS011;56046;47.270;11.368;2023-02-08T15:55:21;6.82;;;2.50;;
68989;SDS011;56046;47.270;11.368;2023-02-08T15:57:52;7.93;;;2.45;;
68989;SDS011;56046;47.270;11.368;2023-02-08T16:00:19;6.67;;;2.30;;
68989;SDS011;56046;47.270;11.368;2023-02-08T16:02:49;7.22;;;2.17;;
68989;SDS011;56046;47.270;11.368;2023-02-08T16:05:20;4.07;;;1.83;;
68989;SDS011;56046;47.270;11.368;2023-02-08T16:07:46;3.45;;;1.55;;
68989;SDS011;56046;47.270;11.368;2023-02-08T16:12:48;6.18;;;2.17;;
68989;SDS011;56046;47.270;11.368;2023-02-08T16:17:58;7.50;;;2.30;;
68989;SDS011;56046;47.270;11.368;2023-02-08T16:20:33;7.23;;;2.00;;
68989;SDS011;56046;47.270;11.368;2023-02-08T16:23:02;9.27;;;2.30;;
68989;SDS011;56046;47.270;11.368;2023-02-08T16:27:53;4.73;;;2.10;;
68989;SDS011;56046;47.270;11.368;2023-02-08T16:30:19;6.95;;;2.00;;
68989;SDS011;56046;47.270;11.368;2023-02-08T16:32:46;5.90;;;2.37;;
68989;SDS011;56046;47.270;11.368;2023-02-08T16:35:12;6.45;;;2.22;;
68989;SDS011;56046;47.270;11.368;2023-02-08T16:37:38;5.60;;;2.10;;
68989;SDS011;56046;47.270;11.368;2023-02-08T16:40:05;5.57;;;2.27;;
68989;SDS011;56046;47.270;11.368;2023-02-08T16:42:35;6.65;;;2.20;;
68989;SDS011;56046;47.270;11.368;2023-02-08T16:50:02;9.80;;;3.63;;
68989;SDS011;56046;47.270;11.368;2023-02-08T16:52:27;10.95;;;3.72;;
68989;SDS011;56046;47.270;11.368;2023-02-08T16:54:52;13.93;;;8.47;;
68989;SDS011;56046;47.270;11.368;2023-02-08T16:57:17;13.60;;;5.70;;
68989;SDS011;56046;47.270;11.368;2023-02-08T16:59:43;8.07;;;4.33;;
68989;SDS011;56046;47.270;11.368;2023-02-08T17:02:11;5.60;;;2.27;;
68989;SDS011;56046;47.270;11.368;2023-02-08T17:04:36;6.63;;;2.80;;
68989;SDS011;56046;47.270;11.368;2023-02-08T17:07:02;8.60;;;3.40;;